Time;durP1;ratioP1;P1;durP2;ratioP2;P2;SDS_P1;SDS_P2;PMS_P1;PMS_P2;Temp;Humidity;BMP_temperature;BMP_pressure;BME280_temperature;BME280_humidity;BME280_pressure;Samples;Min_cycle;Max_cycle;Signal;HPM_P1;HPM_P2
2023/12/30 00:02:20;;;;;;;3.33;1.10;;;9.30;70.20;;;;;;5034227;28;20370;-87
2023/12/30 00:04:46;;;;;;;1.98;1.10;;;9.30;70.20;;;;;;5042922;28;20296;-89
2023/12/30 00:07:12;;;;;;;2.17;0.70;;;9.30;70.20;;;;;;5025164;28;20094;-87
2023/12/30 00:09:40;;;;;;;4.80;1.02;;;9.30;70.30;;;;;;5039044;28;20036;-88
2023/12/30 00:12:07;;;;;;;7.15;1.17;;;9.30;70.30;;;;;;5055571;28;20110;-89
2023/12/30 00:14:33;;;;;;;1.58;0.80;;;9.30;70.30;;;;;;5046361;28;20654;-86
2023/12/30 00:16:59;;;;;;;3.70;1.17;;;9.30;70.30;;;;;;5052729;28;20056;-87
2023/12/30 00:19:25;;;;;;;3.90;2.42;;;9.30;70.30;;;;;;5061855;28;20029;-87
2023/12/30 00:21:52;;;;;;;6.72;1.17;;;9.20;70.20;;;;;;5057103;28;20017;-87
2023/12/30 00:24:18;;;;;;;4.90;1.52;;;9.30;70.40;;;;;;5050424;28;20033;-87
2023/12/30 00:26:44;;;;;;;2.78;0.85;;;9.20;70.20;;;;;;5042691;28;20029;-91
2023/12/30 00:29:12;;;;;;;4.32;0.93;;;9.20;70.20;;;;;;5048147;28;20029;-91
2023/12/30 00:31:38;;;;;;;4.47;1.20;;;9.20;70.20;;;;;;5059523;28;20021;-87
2023/12/30 00:34:05;;;;;;;5.30;1.05;;;9.20;70.30;;;;;;5069027;28;20037;-88
2023/12/30 00:36:32;;;;;;;5.45;1.17;;;9.10;70.10;;;;;;5037559;28;20052;-87
2023/12/30 00:38:58;;;;;;;7.25;1.88;;;9.10;70.10;;;;;;5037878;28;20040;-88
2023/12/30 00:41:25;;;;;;;5.10;1.13;;;9.10;70.10;;;;;;5039215;28;20056;-87
2023/12/30 00:43:51;;;;;;;4.93;1.15;;;9.10;70.10;;;;;;5042966;28;20325;-88
2023/12/30 00:46:21;;;;;;;4.60;1.08;;;9.10;70.20;;;;;;5021738;28;20123;-86
2023/12/30 00:48:48;;;;;;;1.45;0.90;;;9.00;70.00;;;;;;5036627;28;20134;-87
2023/12/30 00:51:15;;;;;;;4.25;1.00;;;9.10;70.20;;;;;;5053165;28;20198;-87
2023/12/30 00:53:41;;;;;;;2.03;1.10;;;9.00;70.00;;;;;;5041763;28;20521;-89
2023/12/30 00:56:07;;;;;;;6.80;1.33;;;9.00;70.00;;;;;;5057052;28;20590;-88
2023/12/30 00:58:33;;;;;;;6.60;2.47;;;8.90;69.80;;;;;;5042766;28;20504;-87
2023/12/30 01:00:59;;;;;;;6.75;1.70;;;8.90;69.80;;;;;;5040588;28;20036;-86
2023/12/30 01:03:25;;;;;;;5.70;1.13;;;8.90;69.80;;;;;;5037272;28;20091;-88
2023/12/30 01:05:52;;;;;;;5.75;1.48;;;8.80;69.60;;;;;;5034558;28;20454;-86
2023/12/30 01:08:20;;;;;;;4.80;1.65;;;8.80;69.70;;;;;;5036503;28;20033;-87
2023/12/30 01:10:45;;;;;;;4.18;1.75;;;8.80;69.80;;;;;;5039939;28;20067;-87
2023/12/30 01:13:12;;;;;;;5.97;0.98;;;8.80;69.80;;;;;;5040710;28;20495;-87
2023/12/30 01:15:38;;;;;;;6.85;1.42;;;8.70;69.60;;;;;;5043616;28;20057;-87
2023/12/30 01:18:04;;;;;;;8.27;1.98;;;8.70;69.70;;;;;;5038264;28;20471;-88
2023/12/30 01:20:30;;;;;;;4.72;1.30;;;8.60;69.50;;;;;;5035326;28;20029;-88
2023/12/30 01:22:56;;;;;;;4.03;1.75;;;8.60;69.60;;;;;;5031040;28;20387;-88
2023/12/30 01:25:22;;;;;;;5.72;1.90;;;8.60;69.60;;;;;;5030561;28;20082;-87
2023/12/30 01:27:48;;;;;;;3.67;1.10;;;8.50;69.50;;;;;;5036749;28;20052;-88
2023/12/30 01:30:18;;;;;;;4.70;1.30;;;8.50;69.50;;;;;;5018896;28;20071;-88
2023/12/30 01:32:45;;;;;;;4.95;1.85;;;8.50;69.60;;;;;;5038260;28;20609;-87
2023/12/30 01:35:11;;;;;;;5.80;1.63;;;8.50;69.70;;;;;;5039000;28;20376;-88
2023/12/30 01:37:39;;;;;;;8.95;1.65;;;8.40;69.50;;;;;;5025753;28;20045;-90
2023/12/30 01:40:06;;;;;;;3.42;1.58;;;8.40;69.60;;;;;;5025416;28;20097;-89
2023/12/30 01:42:32;;;;;;;5.45;1.20;;;8.40;69.60;;;;;;5040568;28;20047;-87
2023/12/30 01:44:58;;;;;;;4.10;1.40;;;8.40;69.70;;;;;;5055233;28;20017;-89
2023/12/30 01:47:24;;;;;;;6.22;1.27;;;8.40;70.20;;;;;;5033329;28;20123;-89
2023/12/30 01:49:51;;;;;;;7.97;1.60;;;8.40;69.80;;;;;;5041449;28;20116;-87
2023/12/30 01:52:17;;;;;;;9.07;1.40;;;8.30;69.60;;;;;;5018995;28;20033;-86
2023/12/30 01:54:44;;;;;;;9.13;1.65;;;8.30;69.70;;;;;;5047097;28;20037;-88
2023/12/30 01:57:10;;;;;;;6.10;1.40;;;8.30;69.70;;;;;;5036402;28;20072;-85
2023/12/30 01:59:37;;;;;;;7.45;1.92;;;8.30;69.80;;;;;;5026815;28;20017;-86
2023/12/30 02:02:04;;;;;;;8.38;1.52;;;8.30;69.80;;;;;;5038457;28;20073;-86
2023/12/30 02:04:30;;;;;;;5.28;1.27;;;8.30;70.40;;;;;;5036290;28;20540;-86
2023/12/30 02:06:56;;;;;;;6.60;1.60;;;8.30;69.90;;;;;;5028380;28;20025;-86
2023/12/30 02:09:23;;;;;;;8.73;1.70;;;8.30;69.90;;;;;;5022988;28;20079;-86
2023/12/30 02:11:49;;;;;;;6.18;1.80;;;8.20;69.80;;;;;;5051810;28;20077;-86
2023/12/30 02:14:32;;;;;;;6.88;1.92;;;8.20;69.80;;;;;;5053109;28;20095;-86
2023/12/30 02:16:59;;;;;;;7.03;1.63;;;8.20;69.80;;;;;;5036349;28;20410;-86
2023/12/30 02:19:25;;;;;;;5.93;1.33;;;8.20;69.80;;;;;;5039996;28;20135;-85
2023/12/30 02:21:52;;;;;;;8.02;1.92;;;8.20;69.90;;;;;;5040006;28;20039;-88
2023/12/30 02:24:20;;;;;;;10.32;2.53;;;8.20;69.90;;;;;;5023472;28;20032;-88
2023/12/30 02:26:46;;;;;;;6.13;1.98;;;8.20;70.00;;;;;;5049077;28;20490;-86
2023/12/30 02:29:12;;;;;;;6.90;1.85;;;8.20;70.00;;;;;;5028759;28;20549;-87
2023/12/30 02:31:46;;;;;;;6.30;1.42;;;8.20;70.00;;;;;;5037210;28;20029;-87
2023/12/30 02:34:18;;;;;;;8.82;2.10;;;8.20;70.00;;;;;;5031722;28;20534;-91
2023/12/30 02:36:45;;;;;;;8.52;2.17;;;8.20;70.10;;;;;;5050275;28;20544;-84
2023/12/30 02:39:11;;;;;;;8.13;1.83;;;8.20;70.10;;;;;;5027644;28;20759;-88
2023/12/30 02:41:38;;;;;;;5.20;1.30;;;8.20;70.10;;;;;;5038764;28;20051;-87
2023/12/30 02:44:04;;;;;;;5.55;1.77;;;8.30;70.30;;;;;;5041838;28;20087;-85
2023/12/30 02:46:31;;;;;;;4.15;1.65;;;8.30;70.30;;;;;;5039850;28;20079;-87
2023/12/30 02:49:02;;;;;;;7.22;1.33;;;8.30;70.30;;;;;;5023912;28;20443;-87
2023/12/30 02:51:29;;;;;;;7.32;1.52;;;8.30;70.30;;;;;;5042289;28;20077;-87
2023/12/30 02:53:56;;;;;;;6.03;1.55;;;8.30;70.30;;;;;;5038979;28;20029;-88
2023/12/30 02:56:26;;;;;;;7.03;2.00;;;8.30;70.30;;;;;;5043415;28;20487;-86
2023/12/30 02:58:57;;;;;;;7.88;1.85;;;8.30;70.30;;;;;;5048970;28;20434;-88
2023/12/30 03:01:25;;;;;;;10.23;1.92;;;8.30;70.30;;;;;;5040594;28;20052;-85
2023/12/30 03:03:53;;;;;;;6.70;1.88;;;8.30;70.30;;;;;;5039874;28;20025;-86
2023/12/30 03:06:21;;;;;;;5.82;1.60;;;8.30;70.30;;;;;;5042855;28;20033;-87
2023/12/30 03:08:48;;;;;;;6.30;1.10;;;8.30;70.30;;;;;;5042289;28;20037;-85
2023/12/30 03:11:14;;;;;;;11.05;2.53;;;8.40;70.60;;;;;;5041828;28;20044;-86
2023/12/30 03:13:41;;;;;;;9.52;3.22;;;8.40;70.50;;;;;;5040283;28;20032;-88
2023/12/30 03:16:10;;;;;;;4.50;1.60;;;8.40;70.60;;;;;;5056305;28;20455;-85
2023/12/30 03:18:40;;;;;;;11.00;2.78;;;8.40;70.60;;;;;;5037554;28;20454;-85
2023/12/30 03:21:07;;;;;;;7.88;1.92;;;8.40;70.60;;;;;;5056695;28;20033;-85
2023/12/30 03:23:34;;;;;;;5.88;1.92;;;8.40;70.60;;;;;;5040252;28;20033;-84
2023/12/30 03:26:01;;;;;;;6.60;1.48;;;8.40;70.60;;;;;;5050709;28;20074;-85
2023/12/30 03:28:27;;;;;;;6.32;1.80;;;8.40;70.60;;;;;;5030801;28;20040;-89
2023/12/30 03:30:54;;;;;;;7.95;1.50;;;8.40;70.60;;;;;;5043004;28;20029;-90
2023/12/30 03:33:20;;;;;;;5.05;1.58;;;8.50;70.80;;;;;;5043547;28;20037;-90
2023/12/30 03:35:46;;;;;;;7.78;1.35;;;8.50;70.80;;;;;;5037686;28;20368;-91
2023/12/30 03:38:12;;;;;;;5.53;1.40;;;8.60;71.00;;;;;;5042029;28;20044;-85
2023/12/30 03:40:38;;;;;;;9.25;1.63;;;8.50;70.80;;;;;;5043547;28;20029;-85
2023/12/30 03:43:05;;;;;;;6.30;2.75;;;8.60;71.00;;;;;;5040946;28;20040;-88
2023/12/30 03:45:31;;;;;;;9.38;1.45;;;8.60;71.00;;;;;;5039151;28;20060;-86
2023/12/30 03:47:57;;;;;;;7.10;1.35;;;8.60;71.00;;;;;;5039175;28;20069;-86
2023/12/30 03:50:23;;;;;;;7.68;2.42;;;8.60;71.00;;;;;;5038621;28;20041;-84
2023/12/30 03:52:51;;;;;;;11.18;1.77;;;8.60;71.00;;;;;;5056991;28;20715;-86
2023/12/30 03:55:17;;;;;;;8.13;1.55;;;8.60;71.10;;;;;;5037366;28;20191;-85
2023/12/30 03:57:43;;;;;;;7.85;2.08;;;8.60;71.60;;;;;;5039712;28;20513;-86
2023/12/30 04:00:10;;;;;;;9.68;2.30;;;8.70;71.80;;;;;;5025475;28;20071;-88
2023/12/30 04:02:39;;;;;;;4.25;1.60;;;8.60;71.20;;;;;;5031085;28;20033;-86
2023/12/30 04:05:06;;;;;;;5.43;1.85;;;8.70;71.40;;;;;;5039383;28;20028;-84
2023/12/30 04:07:33;;;;;;;7.68;1.33;;;8.60;71.20;;;;;;5020747;28;20029;-83
2023/12/30 04:10:00;;;;;;;7.10;2.33;;;8.70;71.40;;;;;;5040878;28;20036;-84
2023/12/30 04:12:26;;;;;;;10.52;1.95;;;8.70;71.40;;;;;;5039022;28;20037;-85
2023/12/30 04:14:52;;;;;;;4.65;1.85;;;8.70;71.50;;;;;;5034555;28;20036;-84
2023/12/30 04:17:17;;;;;;;4.90;1.48;;;8.70;71.50;;;;;;5038747;28;20045;-86
2023/12/30 04:19:43;;;;;;;4.35;1.20;;;8.70;71.50;;;;;;5019197;28;20033;-85
2023/12/30 04:22:12;;;;;;;6.32;1.30;;;8.80;71.70;;;;;;5038400;28;20029;-85
2023/12/30 04:24:38;;;;;;;6.10;1.88;;;8.80;71.70;;;;;;5020472;28;20102;-84
2023/12/30 04:27:05;;;;;;;5.47;1.33;;;8.80;71.70;;;;;;5029303;28;20029;-85
2023/12/30 04:29:31;;;;;;;6.70;1.50;;;8.80;71.70;;;;;;5040418;28;20084;-85
2023/12/30 04:31:57;;;;;;;6.15;2.30;;;8.80;71.70;;;;;;5042798;28;20032;-84
2023/12/30 04:34:23;;;;;;;6.50;1.30;;;8.80;71.70;;;;;;5036447;28;20095;-85
2023/12/30 04:36:49;;;;;;;9.77;1.58;;;8.90;71.90;;;;;;5045794;28;20078;-85
2023/12/30 04:39:15;;;;;;;6.00;1.83;;;8.80;71.80;;;;;;5039383;28;20029;-83
2023/12/30 04:41:41;;;;;;;6.30;1.70;;;8.80;71.80;;;;;;5039154;28;20386;-86
2023/12/30 04:44:07;;;;;;;5.78;1.58;;;8.90;72.00;;;;;;5025505;28;20119;-89
2023/12/30 04:46:33;;;;;;;8.68;1.52;;;8.80;71.80;;;;;;5028374;28;20025;-90
2023/12/30 04:49:02;;;;;;;6.22;1.90;;;8.90;72.00;;;;;;5024638;28;20037;-90
2023/12/30 04:51:29;;;;;;;7.32;1.48;;;8.90;72.00;;;;;;5034953;28;20036;-90
2023/12/30 04:53:56;;;;;;;7.30;1.40;;;8.90;72.10;;;;;;5053458;28;20136;-87
2023/12/30 04:56:23;;;;;;;8.80;2.50;;;8.90;72.10;;;;;;5023307;28;20326;-85
2023/12/30 04:58:51;;;;;;;3.97;1.48;;;8.90;72.10;;;;;;5042181;28;20090;-86
2023/12/30 05:01:17;;;;;;;5.68;1.35;;;8.90;72.10;;;;;;5025088;28;20024;-85
2023/12/30 05:03:43;;;;;;;6.88;1.83;;;8.90;72.10;;;;;;5031517;28;20079;-85
2023/12/30 05:06:19;;;;;;;11.15;1.60;;;8.90;72.10;;;;;;5041457;28;20037;-88
2023/12/30 05:08:45;;;;;;;6.60;1.33;;;8.90;72.20;;;;;;5040293;28;20033;-90
2023/12/30 05:11:11;;;;;;;5.20;1.30;;;8.90;72.10;;;;;;5049005;28;20039;-85
2023/12/30 05:13:38;;;;;;;10.00;1.75;;;9.00;72.30;;;;;;5028255;28;20168;-88
2023/12/30 05:16:05;;;;;;;6.88;1.80;;;9.00;72.30;;;;;;5020667;28;20059;-87
2023/12/30 05:18:31;;;;;;;6.93;1.73;;;9.00;72.40;;;;;;5021933;28;20430;-87
2023/12/30 05:20:59;;;;;;;7.20;1.95;;;9.00;72.40;;;;;;5036766;28;20369;-87
2023/12/30 05:23:25;;;;;;;8.13;1.33;;;9.00;72.40;;;;;;5040392;28;20298;-86
2023/12/30 05:25:51;;;;;;;5.45;1.60;;;9.00;72.40;;;;;;5039195;28;20029;-88
2023/12/30 05:28:19;;;;;;;3.35;1.20;;;9.10;72.60;;;;;;5042036;28;20036;-87
2023/12/30 05:30:46;;;;;;;8.05;1.45;;;9.00;72.40;;;;;;5034012;28;20037;-87
2023/12/30 05:33:13;;;;;;;5.22;1.73;;;9.10;72.60;;;;;;5040352;28;20033;-91
2023/12/30 05:35:40;;;;;;;7.30;1.50;;;9.10;72.60;;;;;;5026808;28;20029;-90
2023/12/30 05:38:06;;;;;;;10.80;2.33;;;9.10;73.10;;;;;;5025814;28;20381;-89
2023/12/30 05:40:31;;;;;;;6.22;1.33;;;9.10;72.60;;;;;;5040756;28;20087;-87
2023/12/30 05:42:58;;;;;;;6.00;1.35;;;9.20;72.80;;;;;;5043379;28;20490;-86
2023/12/30 05:45:24;;;;;;;8.20;2.17;;;9.20;72.80;;;;;;5040881;28;20047;-89
2023/12/30 05:47:51;;;;;;;6.93;1.60;;;9.20;72.80;;;;;;5059231;28;20044;-87
2023/12/30 05:50:16;;;;;;;5.22;1.35;;;9.20;72.80;;;;;;5029964;28;20037;-89
2023/12/30 05:52:42;;;;;;;8.00;1.40;;;9.20;72.80;;;;;;5056900;28;20044;-92
2023/12/30 05:55:09;;;;;;;9.07;1.67;;;9.20;72.80;;;;;;5047556;28;20044;-91
2023/12/30 05:57:36;;;;;;;10.13;2.22;;;9.20;72.80;;;;;;5042205;28;20045;-93
2023/12/30 06:00:04;;;;;;;5.53;1.80;;;9.30;73.00;;;;;;5036474;28;20036;-86
2023/12/30 06:02:40;;;;;;;7.32;2.08;;;9.30;73.00;;;;;;5045581;28;20469;-86
2023/12/30 06:05:07;;;;;;;9.98;2.25;;;9.30;73.00;;;;;;5033073;28;20035;-86
2023/12/30 06:07:34;;;;;;;8.43;1.60;;;9.30;73.10;;;;;;5022628;28;20096;-86
2023/12/30 06:10:01;;;;;;;6.60;1.35;;;9.30;73.10;;;;;;5044401;28;20115;-86
2023/12/30 06:12:27;;;;;;;8.38;2.13;;;9.30;73.70;;;;;;5044569;28;20060;-87
2023/12/30 06:14:53;;;;;;;6.10;1.20;;;9.30;73.20;;;;;;5035582;28;20427;-87
2023/12/30 06:17:19;;;;;;;11.60;1.75;;;9.30;73.20;;;;;;5035594;28;20813;-89
2023/12/30 06:19:46;;;;;;;7.95;1.90;;;9.30;73.20;;;;;;5040569;28;20127;-88
2023/12/30 06:22:13;;;;;;;6.22;1.58;;;9.40;73.50;;;;;;5026821;28;20037;-88
2023/12/30 06:24:39;;;;;;;8.85;2.15;;;9.40;73.50;;;;;;5048001;28;20079;-87
2023/12/30 06:27:05;;;;;;;6.35;1.67;;;9.40;73.50;;;;;;5054335;28;20071;-91
2023/12/30 06:29:31;;;;;;;6.72;1.73;;;9.40;73.50;;;;;;5063951;28;20230;-86
2023/12/30 06:31:57;;;;;;;4.38;1.40;;;9.40;73.60;;;;;;5069044;28;20096;-85
2023/12/30 06:34:23;;;;;;;8.15;1.67;;;9.40;73.60;;;;;;5076514;28;20048;-87
2023/12/30 06:36:49;;;;;;;5.65;1.88;;;9.40;73.70;;;;;;5056711;28;20026;-87
2023/12/30 06:39:20;;;;;;;4.47;1.58;;;9.40;73.70;;;;;;5080849;28;20045;-86
2023/12/30 06:41:46;;;;;;;6.20;1.60;;;9.50;73.90;;;;;;5066296;28;20048;-88
2023/12/30 06:44:12;;;;;;;9.38;1.95;;;9.50;73.90;;;;;;5063911;28;20048;-86
2023/12/30 06:46:38;;;;;;;7.40;2.08;;;9.50;73.90;;;;;;5056582;28;20181;-86
2023/12/30 06:49:04;;;;;;;11.43;2.38;;;9.50;73.90;;;;;;5046159;28;20033;-86
2023/12/30 06:51:33;;;;;;;9.07;1.60;;;9.60;74.10;;;;;;5032418;28;20045;-86
2023/12/30 06:53:59;;;;;;;12.13;3.33;;;9.60;74.10;;;;;;5032411;28;20065;-88
2023/12/30 06:56:25;;;;;;;8.80;1.60;;;9.60;74.10;;;;;;5041349;28;20711;-88
2023/12/30 06:58:51;;;;;;;7.57;1.40;;;9.60;74.10;;;;;;5033075;28;20423;-85
2023/12/30 07:01:21;;;;;;;9.13;2.17;;;9.60;74.20;;;;;;5040127;28;20024;-84
2023/12/30 07:03:47;;;;;;;8.07;1.50;;;9.60;74.40;;;;;;5039155;28;20033;-88
2023/12/30 07:06:13;;;;;;;9.45;2.03;;;9.60;74.20;;;;;;5042986;28;20029;-87
2023/12/30 07:08:41;;;;;;;6.25;1.20;;;9.60;74.30;;;;;;5042508;28;20052;-87
2023/12/30 07:11:07;;;;;;;7.38;1.65;;;9.60;74.30;;;;;;5042807;28;20063;-85
2023/12/30 07:13:33;;;;;;;7.55;1.30;;;9.70;74.50;;;;;;5036511;28;20246;-86
2023/12/30 07:16:00;;;;;;;6.90;1.65;;;9.60;74.40;;;;;;5036993;28;20044;-85
2023/12/30 07:18:26;;;;;;;7.22;1.55;;;9.70;75.10;;;;;;5038442;28;20063;-86
2023/12/30 07:20:53;;;;;;;7.03;2.00;;;9.70;74.70;;;;;;5038953;28;20147;-86
2023/12/30 07:23:19;;;;;;;5.82;1.23;;;9.70;74.80;;;;;;5035186;28;20037;-86
2023/12/30 07:25:47;;;;;;;7.50;1.75;;;9.70;74.80;;;;;;5044496;28;20094;-86
2023/12/30 07:28:13;;;;;;;7.03;1.52;;;9.70;74.80;;;;;;5037843;28;20021;-88
2023/12/30 07:30:39;;;;;;;6.97;1.60;;;9.70;74.90;;;;;;5022487;28;20398;-89
2023/12/30 07:33:07;;;;;;;7.35;1.42;;;9.70;74.90;;;;;;5048150;28;20146;-89
2023/12/30 07:35:34;;;;;;;8.63;1.20;;;9.70;74.90;;;;;;5066935;28;20060;-88
2023/12/30 07:38:00;;;;;;;5.43;1.55;;;9.80;75.10;;;;;;5052239;28;20060;-86
2023/12/30 07:40:26;;;;;;;7.22;1.35;;;9.80;75.20;;;;;;5056699;28;20035;-85
2023/12/30 07:42:52;;;;;;;6.55;1.42;;;9.80;75.20;;;;;;5056682;28;20033;-94
2023/12/30 07:45:19;;;;;;;6.53;1.45;;;9.90;75.50;;;;;;5055985;28;20056;-89
2023/12/30 07:47:45;;;;;;;5.82;1.33;;;9.90;75.80;;;;;;5036258;28;20053;-84
2023/12/30 07:50:12;;;;;;;10.27;1.58;;;10.00;76.20;;;;;;5057509;28;20139;-84
2023/12/30 07:52:39;;;;;;;5.43;1.35;;;10.10;76.50;;;;;;5051167;28;20028;-84
2023/12/30 07:55:06;;;;;;;8.95;1.63;;;10.20;76.80;;;;;;5031548;28;20148;-84
2023/12/30 07:57:32;;;;;;;8.00;1.42;;;10.30;77.10;;;;;;5037249;28;20037;-86
2023/12/30 07:59:58;;;;;;;7.25;1.55;;;10.30;77.10;;;;;;5046904;28;20030;-85
2023/12/30 08:02:24;;;;;;;6.40;1.40;;;10.30;77.20;;;;;;5049536;28;20069;-85
2023/12/30 08:04:50;;;;;;;10.23;2.47;;;10.40;77.50;;;;;;5052252;28;20529;-86
2023/12/30 08:07:16;;;;;;;12.32;3.53;;;10.40;77.60;;;;;;5068421;28;20060;-86
2023/12/30 08:09:42;;;;;;;13.63;2.45;;;10.40;77.60;;;;;;5061606;28;20076;-84
2023/12/30 08:12:08;;;;;;;16.52;4.38;;;10.40;77.70;;;;;;5043064;28;20061;-84
2023/12/30 08:14:34;;;;;;;10.10;2.42;;;10.50;78.00;;;;;;5042438;28;20239;-85
2023/12/30 08:17:01;;;;;;;10.45;2.05;;;10.50;78.00;;;;;;5042829;28;20159;-86
2023/12/30 08:19:27;;;;;;;16.73;2.63;;;10.50;78.10;;;;;;5052950;28;20082;-85
2023/12/30 08:21:53;;;;;;;9.13;2.53;;;10.50;78.00;;;;;;5047890;28;20029;-84
2023/12/30 08:24:20;;;;;;;8.68;2.20;;;10.50;78.00;;;;;;5034530;28;20033;-85
2023/12/30 08:26:46;;;;;;;9.15;2.38;;;10.60;78.20;;;;;;5040858;28;20032;-88
2023/12/30 08:29:13;;;;;;;7.25;1.70;;;10.60;78.10;;;;;;5036634;28;20498;-89
2023/12/30 08:31:45;;;;;;;7.72;1.63;;;10.60;78.10;;;;;;5037979;28;20574;-89
2023/12/30 08:34:13;;;;;;;12.93;2.42;;;10.70;78.20;;;;;;5038384;28;20823;-87
2023/12/30 08:36:39;;;;;;;12.48;2.60;;;10.70;78.20;;;;;;5044667;28;20123;-88
2023/12/30 08:39:05;;;;;;;12.95;2.88;;;10.70;78.10;;;;;;5043288;28;20514;-90
2023/12/30 08:41:33;;;;;;;8.02;1.85;;;10.70;78.00;;;;;;5021180;28;20453;-87
2023/12/30 08:44:00;;;;;;;9.48;2.58;;;10.80;78.20;;;;;;5066739;28;20049;-87
2023/12/30 08:46:27;;;;;;;7.55;2.03;;;10.80;78.10;;;;;;5047034;28;20048;-85
2023/12/30 08:48:55;;;;;;;8.48;1.40;;;10.80;78.20;;;;;;5044000;28;20044;-89
2023/12/30 08:51:22;;;;;;;8.52;1.98;;;10.90;78.40;;;;;;5036412;28;20029;-89
2023/12/30 08:53:50;;;;;;;10.43;1.60;;;10.90;78.40;;;;;;5046587;28;20020;-88
2023/12/30 08:56:16;;;;;;;10.25;2.10;;;10.90;78.40;;;;;;5025290;28;20072;-88
2023/12/30 08:58:44;;;;;;;9.27;1.85;;;10.90;78.40;;;;;;5040594;28;20147;-89
2023/12/30 09:01:10;;;;;;;8.32;2.00;;;11.00;78.70;;;;;;5050682;28;20499;-90
2023/12/30 09:03:37;;;;;;;5.10;1.33;;;11.00;78.70;;;;;;5037226;28;20041;-89
2023/12/30 09:06:05;;;;;;;4.75;1.45;;;11.00;78.70;;;;;;5034912;28;20136;-90
2023/12/30 09:08:31;;;;;;;9.55;2.03;;;11.10;78.90;;;;;;5030732;28;20060;-91
2023/12/30 09:10:58;;;;;;;5.53;1.40;;;11.10;78.90;;;;;;5036378;28;20033;-87
2023/12/30 09:13:24;;;;;;;4.03;1.65;;;11.20;79.20;;;;;;5018138;28;20032;-85
2023/12/30 09:15:50;;;;;;;11.02;2.00;;;11.20;79.20;;;;;;5053181;28;20037;-89
2023/12/30 09:18:16;;;;;;;6.00;1.17;;;11.30;79.30;;;;;;5034617;28;20047;-86
2023/12/30 09:20:43;;;;;;;4.75;1.30;;;11.30;79.40;;;;;;5032574;28;20029;-88
2023/12/30 09:23:10;;;;;;;5.25;1.30;;;11.30;79.40;;;;;;5036314;28;20108;-86
2023/12/30 09:25:36;;;;;;;7.63;1.70;;;11.40;79.50;;;;;;5035689;28;20037;-86
2023/12/30 09:28:02;;;;;;;4.68;2.03;;;11.40;79.50;;;;;;5036583;28;20040;-86
2023/12/30 09:30:29;;;;;;;4.20;1.27;;;11.50;79.60;;;;;;5032715;28;20025;-86
2023/12/30 09:32:55;;;;;;;3.55;1.13;;;11.50;79.60;;;;;;5031316;28;20108;-86
2023/12/30 09:35:21;;;;;;;6.20;2.00;;;11.60;79.80;;;;;;5030330;28;20029;-86
2023/12/30 09:37:47;;;;;;;6.00;1.00;;;11.60;79.70;;;;;;5032923;28;20041;-86
2023/12/30 09:40:13;;;;;;;6.57;2.08;;;11.60;79.70;;;;;;5045356;28;20368;-86
2023/12/30 09:42:44;;;;;;;4.45;1.00;;;11.70;79.80;;;;;;5045331;28;20036;-88
2023/12/30 09:45:12;;;;;;;3.67;1.00;;;11.70;79.80;;;;;;5028602;28;20041;-88
2023/12/30 09:47:40;;;;;;;3.85;1.10;;;11.70;79.80;;;;;;5053280;28;20071;-87
2023/12/30 09:50:07;;;;;;;4.07;0.70;;;11.80;79.90;;;;;;5030151;28;20025;-88
2023/12/30 09:52:33;;;;;;;3.75;1.10;;;11.80;79.90;;;;;;5031602;28;20035;-85
2023/12/30 09:54:59;;;;;;;4.03;1.70;;;11.80;79.80;;;;;;5057205;28;20196;-85
2023/12/30 09:57:25;;;;;;;6.75;2.10;;;11.90;79.90;;;;;;5071895;28;20030;-86
2023/12/30 09:59:52;;;;;;;5.53;1.45;;;11.90;79.90;;;;;;5074713;28;20123;-85
2023/12/30 10:02:18;;;;;;;2.72;0.90;;;11.90;79.80;;;;;;5056817;28;20041;-87
2023/12/30 10:04:44;;;;;;;3.63;0.88;;;12.00;79.80;;;;;;5062103;28;20021;-88
2023/12/30 10:07:12;;;;;;;6.47;1.45;;;12.10;79.90;;;;;;5071585;28;20017;-89
2023/12/30 10:09:38;;;;;;;5.93;0.80;;;12.10;79.80;;;;;;5068585;28;20033;-87
2023/12/30 10:12:05;;;;;;;3.53;0.80;;;12.20;79.90;;;;;;5048249;28;20044;-88
2023/12/30 10:14:31;;;;;;;5.60;1.05;;;12.20;79.80;;;;;;5054313;28;20097;-89
2023/12/30 10:16:57;;;;;;;3.20;1.00;;;12.20;79.70;;;;;;5017309;28;20044;-86
2023/12/30 10:19:23;;;;;;;3.45;0.85;;;12.30;80.40;;;;;;5037661;28;20033;-88
2023/12/30 10:21:49;;;;;;;6.28;0.95;;;12.30;80.00;;;;;;5041931;28;20039;-89
2023/12/30 10:24:15;;;;;;;5.40;0.80;;;12.50;80.40;;;;;;5047251;28;20617;-88
2023/12/30 10:26:42;;;;;;;5.03;1.05;;;12.70;80.70;;;;;;5037438;28;20025;-90
2023/12/30 10:29:11;;;;;;;4.25;1.27;;;12.80;80.60;;;;;;5045740;28;20033;-88
2023/12/30 10:31:37;;;;;;;3.90;0.68;;;13.00;80.70;;;;;;5051706;28;20079;-86
2023/12/30 10:34:07;;;;;;;5.13;1.00;;;13.30;80.70;;;;;;5038688;28;20037;-88
2023/12/30 10:36:35;;;;;;;1.92;0.90;;;13.40;80.50;;;;;;5033859;28;20161;-87
2023/12/30 10:39:04;;;;;;;7.05;1.13;;;13.60;80.40;;;;;;5051378;28;20412;-88
2023/12/30 10:41:30;;;;;;;6.78;1.35;;;13.70;80.10;;;;;;5043363;28;20033;-87
2023/12/30 10:43:56;;;;;;;4.28;1.27;;;13.90;80.10;;;;;;5031881;28;20105;-88
2023/12/30 10:46:25;;;;;;;4.20;0.93;;;14.00;79.80;;;;;;5021958;28;20030;-88
2023/12/30 10:49:03;;;;;;;3.65;0.88;;;14.20;79.80;;;;;;5033597;28;20041;-88
2023/12/30 10:51:32;;;;;;;5.25;1.10;;;14.30;79.60;;;;;;5054890;28;20075;-87
2023/12/30 10:54:06;;;;;;;3.53;0.70;;;14.40;79.30;;;;;;5054452;28;20112;-90
2023/12/30 10:56:40;;;;;;;4.57;0.70;;;14.60;79.80;;;;;;5035841;28;20421;-88
2023/12/30 10:59:07;;;;;;;5.40;1.60;;;14.70;79.10;;;;;;5039885;28;20110;-89
2023/12/30 11:01:35;;;;;;;4.70;0.93;;;14.80;79.00;;;;;;5044454;28;20131;-88
2023/12/30 11:04:03;;;;;;;4.15;0.90;;;14.90;78.90;;;;;;5062134;28;20056;-89
2023/12/30 11:06:35;;;;;;;5.57;0.80;;;14.90;78.60;;;;;;5037954;28;20037;-87
2023/12/30 11:09:07;;;;;;;5.40;1.43;;;15.00;78.50;;;;;;5031154;28;20033;-89
2023/12/30 11:11:39;;;;;;;2.05;0.90;;;15.10;78.40;;;;;;5031371;28;20334;-89
2023/12/30 11:14:11;;;;;;;3.67;0.85;;;15.10;78.20;;;;;;5039569;28;20068;-88
2023/12/30 11:16:37;;;;;;;3.80;0.70;;;15.20;78.00;;;;;;5029601;28;20146;-89
2023/12/30 11:19:04;;;;;;;3.88;0.80;;;15.30;77.90;;;;;;5041270;28;20033;-89
2023/12/30 11:21:46;;;;;;;4.28;1.20;;;15.30;77.60;;;;;;5044165;28;20636;-89
2023/12/30 11:24:15;;;;;;;8.82;0.80;;;15.40;77.40;;;;;;5032910;28;20401;-87
2023/12/30 11:26:43;;;;;;;4.00;0.73;;;15.40;77.20;;;;;;5042009;28;20082;-87
2023/12/30 11:29:15;;;;;;;5.50;1.30;;;15.50;77.10;;;;;;5028632;28;20045;-88
2023/12/30 11:31:43;;;;;;;5.22;1.10;;;15.50;76.90;;;;;;5062002;28;20036;-87
2023/12/30 11:34:13;;;;;;;3.15;0.60;;;15.50;76.70;;;;;;5039292;28;20032;-90
2023/12/30 11:36:40;;;;;;;6.32;1.48;;;15.60;76.60;;;;;;5044011;28;20033;-86
2023/12/30 11:39:07;;;;;;;7.68;1.15;;;15.60;76.40;;;;;;5054624;28;20102;-89
2023/12/30 11:41:35;;;;;;;8.85;1.27;;;15.60;76.00;;;;;;5051823;28;20032;-88
2023/12/30 11:44:05;;;;;;;5.63;1.30;;;15.60;75.80;;;;;;5032881;28;20091;-87
2023/12/30 11:46:32;;;;;;;6.88;1.65;;;15.60;75.60;;;;;;5033999;28;20025;-87
2023/12/30 11:48:58;;;;;;;7.93;1.33;;;15.60;75.60;;;;;;5051775;28;20043;-86
2023/12/30 11:51:28;;;;;;;6.45;1.60;;;15.50;75.40;;;;;;5079875;28;20032;-87
2023/12/30 11:53:54;;;;;;;11.35;2.47;;;15.40;75.10;;;;;;5052166;28;20033;-87
2023/12/30 11:56:21;;;;;;;6.55;1.15;;;15.40;75.10;;;;;;5034810;28;20036;-87
2023/12/30 11:58:49;;;;;;;7.63;1.50;;;15.40;75.10;;;;;;5055357;28;20039;-86
2023/12/30 12:01:17;;;;;;;9.88;1.90;;;15.30;74.90;;;;;;5046823;28;20116;-91
2023/12/30 12:03:44;;;;;;;4.97;1.98;;;15.40;75.10;;;;;;5050540;28;20326;-88
2023/12/30 12:06:11;;;;;;;7.22;2.03;;;15.30;75.00;;;;;;5066210;28;20077;-89
2023/12/30 12:08:38;;;;;;;6.65;2.08;;;15.30;75.60;;;;;;5032992;28;20036;-88
2023/12/30 12:11:06;;;;;;;11.27;3.13;;;15.40;75.40;;;;;;5051285;28;20449;-89
2023/12/30 12:13:34;;;;;;;11.75;2.63;;;15.40;75.40;;;;;;5058683;28;20356;-89
2023/12/30 12:16:04;;;;;;;17.05;3.42;;;15.40;75.50;;;;;;5053572;28;20048;-90
2023/12/30 12:18:31;;;;;;;14.55;3.83;;;15.40;75.50;;;;;;5051122;28;20052;-90
2023/12/30 12:21:03;;;;;;;15.70;3.83;;;15.50;75.80;;;;;;5053596;28;20029;-90
2023/12/30 12:23:31;;;;;;;11.55;3.28;;;15.50;75.90;;;;;;5046148;28;20388;-88
2023/12/30 12:26:00;;;;;;;14.95;3.45;;;15.50;75.90;;;;;;5032951;28;20041;-84
2023/12/30 12:28:26;;;;;;;16.00;3.40;;;15.60;76.10;;;;;;5042202;28;20092;-87
2023/12/30 12:30:52;;;;;;;12.93;3.55;;;15.60;76.10;;;;;;5028573;28;20372;-85
2023/12/30 12:33:19;;;;;;;13.23;3.47;;;15.70;76.30;;;;;;5036315;28;20056;-86
2023/12/30 12:35:45;;;;;;;8.50;2.80;;;15.70;76.20;;;;;;5035604;28;20487;-89
2023/12/30 12:38:11;;;;;;;10.13;3.95;;;15.70;76.10;;;;;;5061630;28;20043;-86
2023/12/30 12:40:39;;;;;;;13.90;2.78;;;15.70;76.00;;;;;;5033025;28;20032;-88
2023/12/30 12:43:06;;;;;;;6.63;3.10;;;15.70;75.90;;;;;;5057768;28;20044;-86
2023/12/30 12:45:36;;;;;;;12.07;2.67;;;15.70;76.40;;;;;;5036796;28;20029;-86
2023/12/30 12:48:03;;;;;;;12.25;3.03;;;15.70;75.80;;;;;;5052473;28;20052;-89
2023/12/30 12:50:31;;;;;;;9.43;2.88;;;15.70;75.80;;;;;;5042018;28;20659;-85